createdAt,value
2023-02-17T00:00:07.979Z,0.98
2023-02-17T00:02:37.633Z,0.90
2023-02-17T00:05:06.388Z,1.35
2023-02-17T00:07:34.973Z,0.80
2023-02-17T00:10:03.446Z,1.02
2023-02-17T00:12:31.597Z,0.93
2023-02-17T00:14:59.801Z,1.33
2023-02-17T00:17:27.897Z,1.77
2023-02-17T00:19:57.479Z,1.00
2023-02-17T00:22:25.730Z,1.15
2023-02-17T00:24:53.853Z,0.93
2023-02-17T00:27:22.102Z,1.13
2023-02-17T00:29:50.273Z,1.08
2023-02-17T00:32:18.424Z,0.70
2023-02-17T00:34:46.787Z,0.82
2023-02-17T00:37:16.350Z,1.00
2023-02-17T00:39:44.725Z,1.33
2023-02-17T00:42:12.899Z,0.82
2023-02-17T00:44:41.039Z,0.90
2023-02-17T00:47:09.600Z,1.08
2023-02-17T00:49:37.827Z,1.23
2023-02-17T00:52:06.429Z,1.35
2023-02-17T00:54:36.085Z,0.70
2023-02-17T00:57:04.332Z,0.77
2023-02-17T00:59:32.447Z,0.73
2023-02-17T01:02:00.691Z,0.80
2023-02-17T01:04:28.940Z,1.45
2023-02-17T01:06:57.100Z,0.70
2023-02-17T01:09:25.361Z,0.90
2023-02-17T01:11:54.875Z,0.70
2023-02-17T01:14:22.997Z,0.60
2023-02-17T01:16:51.230Z,1.30
2023-02-17T01:19:20.707Z,0.60
2023-02-17T01:21:49.161Z,0.65
2023-02-17T01:24:17.241Z,0.88
2023-02-17T01:26:45.503Z,1.05
2023-02-17T01:29:15.046Z,1.42
2023-02-17T01:31:43.407Z,0.80
2023-02-17T01:34:11.907Z,0.73
2023-02-17T01:36:40.302Z,0.80
2023-02-17T01:39:08.541Z,0.70
2023-02-17T01:41:36.742Z,0.55
2023-02-17T01:44:23.181Z,0.85
2023-02-17T01:46:53.083Z,0.63
2023-02-17T01:49:31.727Z,0.50
2023-02-17T01:52:07.366Z,0.57
2023-02-17T01:54:39.331Z,0.50
2023-02-17T01:57:07.660Z,0.60
2023-02-17T01:59:37.707Z,0.73
2023-02-17T02:02:07.803Z,0.85
2023-02-17T02:04:39.078Z,0.68
2023-02-17T02:07:15.435Z,0.52
2023-02-17T02:09:50.289Z,0.60
2023-02-17T02:12:20.533Z,0.50
2023-02-17T02:14:51.986Z,0.57
2023-02-17T02:17:33.462Z,0.60
2023-02-17T02:20:29.771Z,0.73
2023-02-17T02:23:17.029Z,0.40
2023-02-17T02:26:31.812Z,0.47
2023-02-17T02:29:26.533Z,0.20
2023-02-17T02:32:10.823Z,0.38
2023-02-17T02:34:47.782Z,0.38
2023-02-17T02:37:22.842Z,0.20
2023-02-17T02:39:54.946Z,0.28
2023-02-17T02:42:25.714Z,0.35
2023-02-17T02:44:53.873Z,0.70
2023-02-17T02:47:45.281Z,0.43
2023-02-17T02:50:17.565Z,0.45
2023-02-17T02:53:05.647Z,0.20
2023-02-17T02:55:49.656Z,0.30
2023-02-17T02:58:22.853Z,0.30
2023-02-17T03:00:59.075Z,0.13
2023-02-17T03:03:36.394Z,0.20
2023-02-17T03:06:13.138Z,0.20
2023-02-17T03:08:46.582Z,0.10
2023-02-17T03:11:15.985Z,0.20
2023-02-17T03:13:44.178Z,0.30
2023-02-17T03:16:14.914Z,0.20
2023-02-17T03:18:43.483Z,0.13
2023-02-17T03:21:17.192Z,0.17
2023-02-17T03:23:45.404Z,0.20
2023-02-17T03:26:13.509Z,0.20
2023-02-17T03:28:41.730Z,0.30
2023-02-17T03:31:09.939Z,0.30
2023-02-17T03:33:38.064Z,0.10
2023-02-17T03:36:07.417Z,0.57
2023-02-17T03:38:37.154Z,0.30
2023-02-17T03:41:05.690Z,0.68
2023-02-17T03:43:33.811Z,0.20
2023-02-17T03:46:02.375Z,0.15
2023-02-17T03:48:30.874Z,0.20
2023-02-17T03:50:59.035Z,0.20
2023-02-17T03:53:27.165Z,0.20
2023-02-17T03:55:56.717Z,0.10
2023-02-17T03:58:24.882Z,0.10
2023-02-17T04:00:52.984Z,0.17
2023-02-17T04:03:21.035Z,0.28
2023-02-17T04:05:49.163Z,0.40
2023-02-17T04:08:17.202Z,0.28
2023-02-17T04:10:45.531Z,0.10
2023-02-17T04:13:15.153Z,0.10
2023-02-17T04:15:43.272Z,0.20
2023-02-17T04:18:11.364Z,0.20
2023-02-17T04:20:39.556Z,0.25
2023-02-17T04:23:07.872Z,0.30
2023-02-17T04:25:36.487Z,0.35
2023-02-17T04:28:05.761Z,1.05
2023-02-17T04:30:35.949Z,0.30
2023-02-17T04:33:05.485Z,0.20
2023-02-17T04:35:33.724Z,0.25
2023-02-17T04:38:01.766Z,0.20
2023-02-17T04:40:29.963Z,0.20
2023-02-17T04:42:58.113Z,0.13
2023-02-17T04:45:26.325Z,0.13
2023-02-17T04:47:55.934Z,0.20
2023-02-17T04:50:24.253Z,0.15
2023-02-17T04:52:52.468Z,0.20
2023-02-17T04:55:20.881Z,0.20
2023-02-17T04:57:49.029Z,0.10
2023-02-17T05:00:17.657Z,0.22
2023-02-17T05:02:46.621Z,0.25
2023-02-17T05:05:18.950Z,0.10
2023-02-17T05:07:47.539Z,0.10
2023-02-17T05:10:17.477Z,0.20
2023-02-17T05:12:45.675Z,0.20
2023-02-17T05:15:14.720Z,0.20
2023-02-17T05:17:43.053Z,0.10
2023-02-17T05:20:12.047Z,0.15
2023-02-17T05:22:41.768Z,0.17
2023-02-17T05:25:10.244Z,0.30
2023-02-17T05:27:38.404Z,0.10
2023-02-17T05:30:07.880Z,0.10
2023-02-17T05:32:36.130Z,0.20
2023-02-17T05:35:04.414Z,0.20
2023-02-17T05:37:32.544Z,0.20
2023-02-17T05:40:02.017Z,0.15
2023-02-17T05:42:30.632Z,0.13
2023-02-17T05:44:58.792Z,0.20
2023-02-17T05:47:27.749Z,0.10
2023-02-17T05:49:56.199Z,0.20
2023-02-17T05:52:24.330Z,0.10
2023-02-17T05:54:52.504Z,0.20
2023-02-17T05:57:22.052Z,0.10
2023-02-17T05:59:50.544Z,0.30
2023-02-17T06:02:18.936Z,0.20
2023-02-17T06:04:47.446Z,0.15
2023-02-17T06:07:18.769Z,0.17
2023-02-17T06:09:47.364Z,0.10
2023-02-17T06:12:17.460Z,0.10
2023-02-17T06:14:47.014Z,0.10
2023-02-17T06:17:15.432Z,0.20
2023-02-17T06:19:43.621Z,0.30
2023-02-17T06:22:11.872Z,0.17
2023-02-17T06:24:39.987Z,0.32
2023-02-17T06:27:08.320Z,0.20
2023-02-17T06:29:36.408Z,0.20
2023-02-17T06:32:06.525Z,0.10
2023-02-17T06:34:34.693Z,0.30
2023-02-17T06:37:02.857Z,0.30
2023-02-17T06:39:31.220Z,0.20
2023-02-17T06:41:59.433Z,0.28
2023-02-17T06:44:30.354Z,0.20
2023-02-17T06:46:59.457Z,0.40
2023-02-17T06:49:29.226Z,0.30
2023-02-17T06:51:57.473Z,0.30
2023-02-17T06:54:26.003Z,0.43
2023-02-17T06:56:54.156Z,1.25
2023-02-17T06:59:22.259Z,0.40
2023-02-17T07:01:50.723Z,0.30
2023-02-17T07:04:19.039Z,0.40
2023-02-17T07:06:48.633Z,0.40
2023-02-17T07:09:16.707Z,0.30
2023-02-17T07:11:45.456Z,0.55
2023-02-17T07:14:13.599Z,0.57
2023-02-17T07:16:41.777Z,0.68
2023-02-17T07:19:10.033Z,0.90
2023-02-17T07:21:38.896Z,0.68
2023-02-17T07:24:13.370Z,0.60
2023-02-17T07:26:41.923Z,0.88
2023-02-17T07:29:10.091Z,0.82
2023-02-17T07:31:38.546Z,0.47
2023-02-17T07:34:06.919Z,0.80
2023-02-17T07:36:35.019Z,0.65
2023-02-17T07:39:04.137Z,1.02
2023-02-17T07:41:33.836Z,1.38
2023-02-17T07:44:02.011Z,1.45
2023-02-17T07:46:30.235Z,1.55
2023-02-17T07:48:58.435Z,1.20
2023-02-17T07:51:26.922Z,2.15
2023-02-17T07:53:55.473Z,3.70
2023-02-17T07:56:24.532Z,1.38
2023-02-17T07:58:54.024Z,1.88
2023-02-17T08:01:25.293Z,2.13
2023-02-17T08:03:54.278Z,3.95
2023-02-17T08:06:29.039Z,4.03
2023-02-17T08:09:17.254Z,2.67
2023-02-17T08:12:03.153Z,2.65
2023-02-17T08:14:33.474Z,4.15
2023-02-17T08:17:02.160Z,2.40
2023-02-17T08:19:46.526Z,2.47
2023-02-17T08:22:15.955Z,2.78
2023-02-17T08:24:44.059Z,4.45
2023-02-17T08:27:12.235Z,3.22
2023-02-17T08:29:42.783Z,4.65
2023-02-17T08:32:11.204Z,3.40
2023-02-17T08:34:39.390Z,3.22
2023-02-17T08:37:11.651Z,3.67
2023-02-17T08:39:40.070Z,3.53
2023-02-17T08:42:08.264Z,2.97
2023-02-17T08:44:37.861Z,4.03
2023-02-17T08:47:08.955Z,3.05
2023-02-17T08:49:37.528Z,4.47
2023-02-17T08:52:06.064Z,3.78
2023-02-17T08:54:34.764Z,4.70
2023-02-17T08:57:02.832Z,3.80
2023-02-17T08:59:31.045Z,4.22
2023-02-17T09:01:59.987Z,4.43
2023-02-17T09:04:29.553Z,4.90
2023-02-17T09:06:58.498Z,3.88
2023-02-17T09:09:28.010Z,4.22
2023-02-17T09:11:58.320Z,4.07
2023-02-17T09:14:27.319Z,4.32
2023-02-17T09:16:56.774Z,5.25
2023-02-17T09:19:25.786Z,4.88
2023-02-17T09:21:55.486Z,4.53
2023-02-17T09:24:26.328Z,4.78
2023-02-17T09:26:54.472Z,5.10
2023-02-17T09:29:22.839Z,4.55
2023-02-17T09:31:51.143Z,4.95
2023-02-17T09:34:19.406Z,4.15
2023-02-17T09:36:47.606Z,4.53
2023-02-17T09:39:17.414Z,6.32
2023-02-17T09:41:50.289Z,5.85
2023-02-17T09:44:22.313Z,5.43
2023-02-17T09:47:02.071Z,5.18
2023-02-17T09:49:39.198Z,5.00
2023-02-17T09:52:12.310Z,5.38
2023-02-17T09:54:50.028Z,5.57
2023-02-17T09:57:21.312Z,6.15
2023-02-17T09:59:54.558Z,5.82
2023-02-17T10:02:28.600Z,5.10
2023-02-17T10:05:02.544Z,4.78
2023-02-17T10:07:33.990Z,5.07
2023-02-17T10:10:09.672Z,5.32
2023-02-17T10:12:41.708Z,5.07
2023-02-17T10:15:16.637Z,5.75
2023-02-17T10:17:52.026Z,5.50
2023-02-17T10:20:24.998Z,5.10
2023-02-17T10:22:57.392Z,5.80
2023-02-17T10:25:45.827Z,4.72
2023-02-17T10:28:23.337Z,5.07
2023-02-17T10:31:03.064Z,5.65
2023-02-17T10:33:37.300Z,5.55
2023-02-17T10:36:13.845Z,4.28
2023-02-17T10:38:51.749Z,4.75
2023-02-17T10:41:27.878Z,5.22
2023-02-17T10:43:56.894Z,5.38
2023-02-17T10:46:31.334Z,6.00
2023-02-17T10:49:01.006Z,4.80
2023-02-17T10:51:31.376Z,5.60
2023-02-17T10:54:05.083Z,4.20
2023-02-17T10:56:39.731Z,4.45
2023-02-17T10:59:15.799Z,5.05
2023-02-17T11:01:44.659Z,4.72
2023-02-17T11:04:14.448Z,5.70
2023-02-17T11:06:45.824Z,4.68
2023-02-17T11:09:22.003Z,5.20
2023-02-17T11:12:00.320Z,7.30
2023-02-17T11:14:30.897Z,4.80
2023-02-17T11:17:01.804Z,6.17
2023-02-17T11:19:34.033Z,5.47
2023-02-17T11:22:04.145Z,5.75
2023-02-17T11:24:34.872Z,5.25
2023-02-17T11:27:09.443Z,5.77
2023-02-17T11:29:37.865Z,4.90
2023-02-17T11:32:09.216Z,4.75
2023-02-17T11:34:39.270Z,5.10
2023-02-17T11:37:21.599Z,5.40
2023-02-17T11:39:51.530Z,6.07
2023-02-17T11:42:24.826Z,6.05
2023-02-17T11:44:53.898Z,5.88
2023-02-17T11:47:35.056Z,6.60
2023-02-17T11:50:40.421Z,4.55
2023-02-17T11:53:23.169Z,3.72
2023-02-17T11:56:03.471Z,3.28
2023-02-17T11:58:46.633Z,2.97
2023-02-17T12:01:31.233Z,2.78
2023-02-17T12:04:25.914Z,2.63
2023-02-17T12:07:08.088Z,3.45
2023-02-17T12:09:46.416Z,2.65
2023-02-17T12:12:27.898Z,2.53
2023-02-17T12:15:07.119Z,2.92
2023-02-17T12:17:46.017Z,2.70
2023-02-17T12:20:33.309Z,2.28
2023-02-17T12:23:17.522Z,2.55
2023-02-17T12:25:48.351Z,2.67
2023-02-17T12:28:43.217Z,2.30
2023-02-17T12:31:22.769Z,1.92
2023-02-17T12:33:59.897Z,2.38
2023-02-17T12:36:32.903Z,2.28
2023-02-17T12:39:05.369Z,2.28
2023-02-17T12:41:38.053Z,2.50
2023-02-17T12:44:13.929Z,2.42
2023-02-17T12:46:46.173Z,2.45
2023-02-17T12:49:18.068Z,2.53
2023-02-17T12:51:51.114Z,2.10
2023-02-17T12:54:22.378Z,2.50
2023-02-17T12:57:06.352Z,2.75
2023-02-17T12:59:36.436Z,2.72
2023-02-17T13:02:08.927Z,2.70
2023-02-17T13:04:37.716Z,3.78
2023-02-17T13:07:20.921Z,2.90
2023-02-17T13:09:51.101Z,3.13
2023-02-17T13:12:35.603Z,3.28
2023-02-17T13:15:06.669Z,3.33
2023-02-17T13:17:40.416Z,3.78
2023-02-17T13:20:28.347Z,3.58
2023-02-17T13:23:12.602Z,4.40
2023-02-17T13:25:41.405Z,3.35
2023-02-17T13:28:33.720Z,4.38
2023-02-17T13:31:17.842Z,4.63
2023-02-17T13:33:50.020Z,3.88
2023-02-17T13:36:35.414Z,4.20
2023-02-17T13:39:08.543Z,4.30
2023-02-17T13:41:47.358Z,3.88
2023-02-17T13:44:28.718Z,5.03
2023-02-17T13:47:00.234Z,3.85
2023-02-17T13:49:34.005Z,4.18
2023-02-17T13:52:10.980Z,2.90
2023-02-17T13:54:42.058Z,4.15
2023-02-17T13:57:24.412Z,3.80
2023-02-17T13:59:52.613Z,4.88
2023-02-17T14:02:35.513Z,3.85
2023-02-17T14:05:18.248Z,3.55
2023-02-17T14:07:48.575Z,4.65
2023-02-17T14:10:21.510Z,4.90
2023-02-17T14:12:50.343Z,3.65
2023-02-17T14:15:20.207Z,4.45
2023-02-17T14:17:48.763Z,4.30
2023-02-17T14:20:30.387Z,5.47
2023-02-17T14:25:37.955Z,5.15
2023-02-17T14:28:18.496Z,4.25
2023-02-17T14:30:46.959Z,4.20
2023-02-17T14:33:22.217Z,4.18
2023-02-17T14:35:57.399Z,4.40
2023-02-17T14:38:28.360Z,5.38
2023-02-17T14:40:57.065Z,4.43
2023-02-17T14:43:26.028Z,6.03
2023-02-17T14:45:54.457Z,5.63
2023-02-17T14:48:22.656Z,3.80
2023-02-17T14:50:50.963Z,3.83
2023-02-17T14:53:25.893Z,4.10
2023-02-17T14:55:59.590Z,4.10
2023-02-17T14:58:29.427Z,4.47
2023-02-17T15:00:58.201Z,4.03
2023-02-17T15:03:26.854Z,4.38
2023-02-17T15:05:55.821Z,4.18
2023-02-17T15:08:32.479Z,4.95
2023-02-17T15:11:01.061Z,5.03
2023-02-17T15:13:31.743Z,5.35
2023-02-17T15:16:00.484Z,4.03
2023-02-17T15:18:28.860Z,5.03
2023-02-17T15:20:58.306Z,5.25
2023-02-17T15:23:31.758Z,5.07
2023-02-17T15:26:00.508Z,5.13
2023-02-17T15:28:28.900Z,3.90
2023-02-17T15:30:58.170Z,4.28
2023-02-17T15:33:26.436Z,5.35
2023-02-17T15:35:56.156Z,4.10
2023-02-17T15:38:25.015Z,4.28
2023-02-17T15:40:56.935Z,5.30
2023-02-17T15:43:31.464Z,3.92
2023-02-17T15:45:59.538Z,4.68
2023-02-17T15:48:32.087Z,4.53
2023-02-17T15:51:00.238Z,5.07
2023-02-17T15:53:32.593Z,6.20
2023-02-17T15:56:02.402Z,4.75
2023-02-17T15:58:31.729Z,6.53
2023-02-17T16:01:04.046Z,4.63
2023-02-17T16:03:32.420Z,6.38
2023-02-17T16:06:00.531Z,6.40
2023-02-17T16:08:28.743Z,8.50
2023-02-17T16:10:56.953Z,6.28
2023-02-17T16:13:28.337Z,7.15
2023-02-17T16:15:59.608Z,4.38
2023-02-17T16:18:27.861Z,4.93
2023-02-17T16:20:55.998Z,4.63
2023-02-17T16:23:24.208Z,5.10
2023-02-17T16:25:52.486Z,5.25
2023-02-17T16:28:23.293Z,4.40
2023-02-17T16:30:52.791Z,5.23
2023-02-17T16:33:20.932Z,4.85
2023-02-17T16:35:51.629Z,4.70
2023-02-17T16:38:23.339Z,4.97
2023-02-17T16:40:54.958Z,4.07
2023-02-17T16:43:25.468Z,3.30
2023-02-17T16:45:58.025Z,4.45
2023-02-17T16:48:29.449Z,4.45
2023-02-17T16:50:57.943Z,4.65
2023-02-17T16:53:26.141Z,3.92
2023-02-17T16:55:55.535Z,4.35
2023-02-17T16:58:25.971Z,4.10
2023-02-17T17:00:57.169Z,3.60
2023-02-17T17:03:25.561Z,3.67
2023-02-17T17:05:54.085Z,4.22
2023-02-17T17:08:22.567Z,8.52
2023-02-17T17:10:50.887Z,7.10
2023-02-17T17:13:18.950Z,6.13
2023-02-17T17:15:47.447Z,5.10
2023-02-17T17:18:21.121Z,4.68
2023-02-17T17:20:49.693Z,4.57
2023-02-17T17:23:18.950Z,6.05
2023-02-17T17:25:48.628Z,6.25
2023-02-17T17:28:19.849Z,6.72
2023-02-17T17:30:48.676Z,5.55
2023-02-17T17:33:18.278Z,5.63
2023-02-17T17:35:46.416Z,5.45
2023-02-17T17:38:15.682Z,5.88
2023-02-17T17:40:49.334Z,4.93
2023-02-17T17:43:18.779Z,4.45
2023-02-17T17:45:47.382Z,6.25
2023-02-17T17:48:17.042Z,4.60
2023-02-17T17:50:46.877Z,3.92
2023-02-17T17:53:15.378Z,3.25
2023-02-17T17:55:43.589Z,4.05
2023-02-17T17:58:11.777Z,3.28
2023-02-17T18:00:39.861Z,5.25
2023-02-17T18:03:07.979Z,5.38
2023-02-17T18:05:36.910Z,4.80
2023-02-17T18:08:07.565Z,5.10
2023-02-17T18:10:35.903Z,4.90
2023-02-17T18:13:04.312Z,4.90
2023-02-17T18:15:32.515Z,5.05
2023-02-17T18:18:00.759Z,14.52
2023-02-17T18:20:28.936Z,11.75
2023-02-17T18:22:57.073Z,12.40
2023-02-17T18:25:26.707Z,7.68
2023-02-17T18:27:56.356Z,8.50
2023-02-17T18:30:25.238Z,2.50
2023-02-17T18:32:53.370Z,2.67
2023-02-17T18:35:22.401Z,6.00
2023-02-17T18:37:50.691Z,5.35
2023-02-17T18:40:22.150Z,3.10
2023-02-17T18:42:51.772Z,3.40
2023-02-17T18:45:20.174Z,3.15
2023-02-17T18:47:48.728Z,2.90
2023-02-17T18:50:17.444Z,5.68
2023-02-17T18:52:45.921Z,3.50
2023-02-17T18:55:14.438Z,5.28
2023-02-17T18:57:44.891Z,2.05
2023-02-17T19:00:16.931Z,2.30
2023-02-17T19:02:45.111Z,2.33
2023-02-17T19:05:13.658Z,2.90
2023-02-17T19:07:41.826Z,2.92
2023-02-17T19:10:12.014Z,2.67
2023-02-17T19:12:40.193Z,3.20
2023-02-17T19:15:09.091Z,1.35
2023-02-17T19:17:38.619Z,1.85
2023-02-17T19:20:07.912Z,2.20
2023-02-17T19:22:37.517Z,2.13
2023-02-17T19:25:06.590Z,1.63
2023-02-17T19:27:34.768Z,2.03
2023-02-17T19:30:03.238Z,1.92
2023-02-17T19:32:31.368Z,2.10
2023-02-17T19:35:00.931Z,2.13
2023-02-17T19:37:29.264Z,1.63
2023-02-17T19:39:57.549Z,2.45
2023-02-17T19:42:25.933Z,2.55
2023-02-17T19:44:54.181Z,2.30
2023-02-17T19:47:22.518Z,1.92
2023-02-17T19:49:50.915Z,1.60
2023-02-17T19:52:21.151Z,1.98
2023-02-17T19:54:50.224Z,1.90
2023-02-17T19:57:18.506Z,1.73
2023-02-17T19:59:46.784Z,2.58
2023-02-17T20:02:17.997Z,2.60
2023-02-17T20:04:46.946Z,2.42
2023-02-17T20:07:15.191Z,3.63
2023-02-17T20:09:44.757Z,8.27
2023-02-17T20:12:13.033Z,4.68
2023-02-17T20:14:42.243Z,13.00
2023-02-17T20:17:10.354Z,6.20
2023-02-17T20:19:39.294Z,3.85
2023-02-17T20:22:08.027Z,1.85
2023-02-17T20:24:38.051Z,2.67
2023-02-17T20:27:07.797Z,1.73
2023-02-17T20:29:36.654Z,3.10
2023-02-17T20:32:05.574Z,2.72
2023-02-17T20:34:36.052Z,2.70
2023-02-17T20:37:04.444Z,2.30
2023-02-17T20:39:32.626Z,2.03
2023-02-17T20:42:01.626Z,3.03
2023-02-17T20:44:31.363Z,2.33
2023-02-17T20:46:59.615Z,2.17
2023-02-17T20:49:27.826Z,2.40
2023-02-17T20:51:56.489Z,2.72
2023-02-17T20:54:26.256Z,1.98
2023-02-17T20:56:56.416Z,2.92
2023-02-17T20:59:24.627Z,2.30
2023-02-17T21:01:54.098Z,2.42
2023-02-17T21:04:22.382Z,2.13
2023-02-17T21:06:54.569Z,2.78
2023-02-17T21:09:22.694Z,1.88
2023-02-17T21:11:51.176Z,2.28
2023-02-17T21:14:19.218Z,2.38
2023-02-17T21:16:47.507Z,2.28
2023-02-17T21:19:17.406Z,1.83
2023-02-17T21:21:45.667Z,2.47
2023-02-17T21:24:13.891Z,2.40
2023-02-17T21:26:42.236Z,2.08
2023-02-17T21:29:10.484Z,3.45
2023-02-17T21:31:38.671Z,1.98
2023-02-17T21:34:07.464Z,2.60
2023-02-17T21:36:37.060Z,2.28
2023-02-17T21:39:06.190Z,5.72
2023-02-17T21:41:34.454Z,2.55
2023-02-17T21:44:20.053Z,2.25
2023-02-17T21:46:48.217Z,2.63
2023-02-17T21:49:16.747Z,2.70
2023-02-17T21:51:46.594Z,2.55
2023-02-17T21:54:15.644Z,2.90
2023-02-17T21:56:43.919Z,3.03
2023-02-17T21:59:12.080Z,2.03
2023-02-17T22:01:40.394Z,4.28
2023-02-17T22:04:09.033Z,2.20
2023-02-17T22:06:39.372Z,2.90
2023-02-17T22:09:10.789Z,2.70
2023-02-17T22:11:41.920Z,2.50
2023-02-17T22:14:13.811Z,3.75
2023-02-17T22:16:42.163Z,2.97
2023-02-17T22:19:14.543Z,2.60
2023-02-17T22:21:43.635Z,2.65
2023-02-17T22:24:14.139Z,2.67
2023-02-17T22:26:42.630Z,2.45
2023-02-17T22:29:11.003Z,2.70
2023-02-17T22:31:39.429Z,3.67
2023-02-17T22:34:10.069Z,3.20
2023-02-17T22:36:39.116Z,3.03
2023-02-17T22:39:08.809Z,3.83
2023-02-17T22:41:38.960Z,3.00
2023-02-17T22:44:07.178Z,2.70
2023-02-17T22:46:36.081Z,2.33
2023-02-17T22:49:04.286Z,2.03
2023-02-17T22:51:36.136Z,2.97
2023-02-17T22:54:05.083Z,2.15
2023-02-17T22:56:34.051Z,2.17
2023-02-17T22:59:05.554Z,2.28
2023-02-17T23:04:03.080Z,1.75
2023-02-17T23:06:33.112Z,2.00
2023-02-17T23:09:02.192Z,2.40
2023-02-17T23:11:49.863Z,1.75
2023-02-17T23:14:21.835Z,1.55
2023-02-17T23:16:50.413Z,1.85
2023-02-17T23:19:21.476Z,2.58
2023-02-17T23:21:51.919Z,1.42
2023-02-17T23:24:21.407Z,2.33
2023-02-17T23:26:50.132Z,2.15
2023-02-17T23:29:20.403Z,1.73
2023-02-17T23:31:48.597Z,2.08
2023-02-17T23:34:17.526Z,2.67
2023-02-17T23:36:47.023Z,1.90
2023-02-17T23:39:16.212Z,1.80
2023-02-17T23:41:44.688Z,2.00
2023-02-17T23:44:14.934Z,1.48
2023-02-17T23:46:46.978Z,2.30
2023-02-17T23:49:16.496Z,1.77
2023-02-17T23:51:46.978Z,1.40
2023-02-17T23:54:15.398Z,2.10
2023-02-17T23:56:43.867Z,1.70
2023-02-17T23:59:12.281Z,1.83
